Terminal Aerodrome Forecast
Issued by NWS Sterling, VA

Current Version | Previous Version | Text Only | Print | Product List | Glossary Off
Versions: 1 2 3 4 5 6 7 8 9 10 11 12 13 14 15 16 17 18 19 20 21 22 23 24 25 26 27 28 29

000
FTUS41 KLWX 232000 AAB
TAFDCA
TAF AMD
KDCA 232038Z 2321/2418 18004KT 2SM BR OVC008
     FM232300 00000KT 5SM -DZ BR OVC003
     FM240200 00000KT 6SM -RA BR OVC003
     FM241100 VRB03KT 3SM RA OVC003=

USA.gov is the U.S. government's official web portal to all federal, state and local government web resources and services.